createdAt,value
2019-03-19T00:02:09.620Z,3.27
2019-03-19T00:04:39.451Z,3.80
2019-03-19T00:07:09.253Z,3.25
2019-03-19T00:09:39.153Z,3.60
2019-03-19T00:12:09.061Z,3.35
2019-03-19T00:14:38.856Z,3.47
2019-03-19T00:17:08.666Z,3.77
2019-03-19T00:19:38.611Z,3.70
2019-03-19T00:22:08.550Z,4.05
2019-03-19T00:24:38.559Z,4.10
2019-03-19T00:27:08.428Z,3.87
2019-03-19T00:29:38.421Z,4.20
2019-03-19T00:32:08.393Z,3.72
2019-03-19T00:34:38.249Z,3.55
2019-03-19T00:37:08.123Z,3.93
2019-03-19T00:39:37.997Z,3.90
2019-03-19T00:42:08.852Z,3.87
2019-03-19T00:44:38.761Z,3.98
2019-03-19T00:47:08.675Z,4.28
2019-03-19T00:49:38.580Z,4.75
2019-03-19T00:52:08.502Z,4.90
2019-03-19T00:54:38.515Z,5.67
2019-03-19T00:57:08.390Z,5.25
2019-03-19T00:59:38.234Z,4.97
2019-03-19T01:02:08.139Z,4.87
2019-03-19T01:04:38.102Z,5.70
2019-03-19T01:07:09.470Z,6.00
2019-03-19T01:09:39.266Z,6.40
2019-03-19T01:12:09.090Z,6.50
2019-03-19T01:14:39.008Z,5.87
2019-03-19T01:17:08.872Z,5.87
2019-03-19T01:19:38.719Z,6.10
2019-03-19T01:22:08.550Z,6.10
2019-03-19T01:24:38.425Z,6.25
2019-03-19T01:27:08.237Z,6.60
2019-03-19T01:29:38.058Z,6.50
2019-03-19T01:32:07.870Z,7.20
2019-03-19T01:34:37.756Z,6.20
2019-03-19T01:37:08.794Z,6.10
2019-03-19T01:39:38.571Z,5.90
2019-03-19T01:42:08.405Z,5.47
2019-03-19T01:44:38.226Z,5.70
2019-03-19T01:47:08.049Z,5.03
2019-03-19T01:49:37.943Z,5.25
2019-03-19T01:52:07.741Z,5.40
2019-03-19T01:54:37.543Z,5.22
2019-03-19T01:57:07.430Z,5.25
2019-03-19T01:59:37.367Z,6.55
2019-03-19T02:02:07.255Z,7.33
2019-03-19T02:04:37.072Z,8.15
2019-03-19T02:07:06.841Z,7.30
2019-03-19T02:09:36.751Z,7.08
2019-03-19T02:12:06.569Z,6.75
2019-03-19T02:14:36.407Z,6.50
2019-03-19T02:17:06.318Z,6.67
2019-03-19T02:19:36.205Z,6.20
2019-03-19T02:22:06.046Z,6.58
2019-03-19T02:24:35.939Z,6.70
2019-03-19T02:27:05.883Z,7.08
2019-03-19T02:29:35.704Z,7.87
2019-03-19T02:32:05.621Z,7.60
2019-03-19T02:34:35.441Z,8.08
2019-03-19T02:37:05.326Z,7.37
2019-03-19T02:39:35.158Z,8.13
2019-03-19T02:42:04.947Z,7.78
2019-03-19T02:44:34.768Z,7.80
2019-03-19T02:47:04.619Z,7.87
2019-03-19T02:49:34.516Z,7.53
2019-03-19T02:52:04.410Z,7.30
2019-03-19T02:54:34.330Z,7.37
2019-03-19T02:57:04.237Z,7.72
2019-03-19T02:59:34.198Z,7.83
2019-03-19T03:02:03.990Z,7.62
2019-03-19T03:04:33.799Z,7.78
2019-03-19T03:07:03.730Z,7.90
2019-03-19T03:09:33.631Z,8.43
2019-03-19T03:12:03.474Z,8.08
2019-03-19T03:14:33.283Z,8.28
2019-03-19T03:17:03.068Z,8.80
2019-03-19T03:19:32.949Z,8.48
2019-03-19T03:22:02.786Z,8.98
2019-03-19T03:24:32.624Z,8.33
2019-03-19T03:27:02.711Z,8.25
2019-03-19T03:29:32.843Z,8.40
2019-03-19T03:32:02.651Z,8.30
2019-03-19T03:34:32.493Z,9.63
2019-03-19T03:37:02.392Z,9.10
2019-03-19T03:39:32.301Z,9.33
2019-03-19T03:42:02.130Z,11.18
2019-03-19T03:44:32.011Z,11.80
2019-03-19T03:47:01.989Z,12.28
2019-03-19T03:49:31.811Z,11.85
2019-03-19T03:52:01.730Z,11.30
2019-03-19T03:54:31.597Z,12.63
2019-03-19T03:57:02.862Z,11.33
2019-03-19T03:59:32.937Z,11.33
2019-03-19T04:02:02.846Z,11.00
2019-03-19T04:04:33.036Z,11.38
2019-03-19T04:07:03.000Z,11.10
2019-03-19T04:09:32.912Z,10.50
2019-03-19T04:12:02.758Z,10.85
2019-03-19T04:14:32.562Z,11.13
2019-03-19T04:17:02.380Z,11.45
2019-03-19T04:19:32.188Z,11.20
2019-03-19T04:22:02.209Z,10.50
2019-03-19T04:24:32.126Z,10.93
2019-03-19T04:27:14.959Z,11.50
2019-03-19T04:29:33.716Z,11.00
2019-03-19T04:32:03.606Z,11.03
2019-03-19T04:34:33.442Z,11.18
2019-03-19T04:37:03.294Z,11.33
2019-03-19T04:39:33.209Z,10.63
2019-03-19T04:42:03.075Z,11.03
2019-03-19T04:44:33.022Z,10.82
2019-03-19T04:47:02.835Z,10.95
2019-03-19T04:49:32.677Z,10.82
2019-03-19T04:52:02.584Z,10.85
2019-03-19T04:54:32.406Z,11.12
2019-03-19T04:57:02.237Z,10.80
2019-03-19T04:59:32.151Z,10.85
2019-03-19T05:02:02.082Z,10.48
2019-03-19T05:04:31.974Z,10.48
2019-03-19T05:07:01.822Z,10.70
2019-03-19T05:09:31.681Z,11.65
2019-03-19T05:12:01.534Z,11.03
2019-03-19T05:14:31.426Z,10.70
2019-03-19T05:17:01.245Z,10.70
2019-03-19T05:19:31.166Z,11.47
2019-03-19T05:22:01.019Z,10.90
2019-03-19T05:24:30.881Z,10.82
2019-03-19T05:27:00.774Z,11.20
2019-03-19T05:29:30.633Z,11.10
2019-03-19T05:32:00.434Z,11.08
2019-03-19T05:34:30.302Z,10.93
2019-03-19T05:37:00.162Z,11.57
2019-03-19T05:39:30.055Z,11.75
2019-03-19T05:41:59.893Z,11.17
2019-03-19T05:44:29.712Z,11.20
2019-03-19T05:46:59.658Z,11.18
2019-03-19T05:49:29.671Z,11.70
2019-03-19T05:51:59.561Z,11.15
2019-03-19T05:54:29.370Z,11.78
2019-03-19T05:56:59.265Z,10.67
2019-03-19T05:59:29.178Z,10.68
2019-03-19T06:01:59.091Z,10.68
2019-03-19T06:04:28.968Z,11.00
2019-03-19T06:06:58.885Z,11.12
2019-03-19T06:09:28.746Z,11.30
2019-03-19T06:11:58.501Z,11.48
2019-03-19T06:14:28.426Z,11.15
2019-03-19T06:16:58.402Z,11.18
2019-03-19T06:19:28.244Z,11.60
2019-03-19T06:21:58.105Z,12.07
2019-03-19T06:24:27.943Z,11.95
2019-03-19T06:26:57.821Z,11.75
2019-03-19T06:29:27.769Z,12.20
2019-03-19T06:31:57.666Z,11.93
2019-03-19T06:34:27.525Z,12.63
2019-03-19T06:36:57.403Z,12.37
2019-03-19T06:39:27.271Z,12.73
2019-03-19T06:41:57.173Z,12.47
2019-03-19T06:44:26.994Z,12.70
2019-03-19T06:46:56.898Z,12.05
2019-03-19T06:49:26.751Z,13.35
2019-03-19T06:51:56.668Z,16.23
2019-03-19T06:54:26.579Z,36.58
2019-03-19T06:56:56.515Z,36.17
2019-03-19T06:59:26.533Z,26.02
2019-03-19T07:01:56.510Z,19.70
2019-03-19T07:04:26.348Z,17.55
2019-03-19T07:06:56.261Z,18.15
2019-03-19T07:09:26.161Z,17.60
2019-03-19T07:11:56.051Z,18.95
2019-03-19T07:14:26.023Z,18.57
2019-03-19T07:16:55.863Z,19.00
2019-03-19T07:19:25.689Z,18.90
2019-03-19T07:21:55.601Z,19.65
2019-03-19T07:24:25.498Z,20.20
2019-03-19T07:26:55.470Z,20.92
2019-03-19T07:29:25.366Z,19.40
2019-03-19T07:31:57.117Z,19.57
2019-03-19T07:34:26.967Z,19.48
2019-03-19T07:36:56.906Z,19.77
2019-03-19T07:39:28.471Z,19.70
2019-03-19T07:41:58.438Z,18.30
2019-03-19T07:44:28.861Z,17.60
2019-03-19T07:46:58.695Z,19.00
2019-03-19T07:49:29.052Z,17.95
2019-03-19T07:51:58.903Z,18.30
2019-03-19T07:54:28.863Z,17.62
2019-03-19T07:56:58.704Z,18.62
2019-03-19T07:59:28.601Z,17.32
2019-03-19T08:01:58.710Z,18.42
2019-03-19T08:04:28.562Z,15.95
2019-03-19T08:06:58.434Z,16.17
2019-03-19T08:09:28.358Z,14.07
2019-03-19T08:11:58.438Z,14.23
2019-03-19T08:14:28.272Z,14.45
2019-03-19T08:16:58.196Z,15.25
2019-03-19T08:19:28.082Z,15.55
2019-03-19T08:21:57.944Z,15.43
2019-03-19T08:24:27.765Z,14.73
2019-03-19T08:26:57.657Z,14.83
2019-03-19T08:29:27.524Z,14.80
2019-03-19T08:31:57.447Z,15.45
2019-03-19T08:34:27.286Z,15.40
2019-03-19T08:36:57.182Z,15.00
2019-03-19T08:39:27.146Z,14.95
2019-03-19T08:41:57.139Z,14.70
2019-03-19T08:44:27.905Z,14.87
2019-03-19T08:46:58.034Z,14.85
2019-03-19T08:49:27.857Z,14.63
2019-03-19T08:51:57.759Z,14.98
2019-03-19T08:54:27.602Z,14.18
2019-03-19T08:56:57.494Z,14.80
2019-03-19T08:59:27.341Z,13.50
2019-03-19T09:01:57.237Z,14.10
2019-03-19T09:04:27.162Z,13.83
2019-03-19T09:06:56.984Z,14.83
2019-03-19T09:09:26.858Z,14.53
2019-03-19T09:11:56.799Z,14.40
2019-03-19T09:14:26.616Z,14.67
2019-03-19T09:16:56.471Z,14.87
2019-03-19T09:19:26.427Z,14.23
2019-03-19T09:21:56.288Z,14.47
2019-03-19T09:24:26.195Z,13.78
2019-03-19T09:26:56.240Z,14.20
2019-03-19T09:29:26.194Z,14.10
2019-03-19T09:31:56.087Z,13.90
2019-03-19T09:34:26.050Z,12.15
2019-03-19T09:36:57.688Z,11.40
2019-03-19T09:39:27.980Z,12.25
2019-03-19T09:41:57.982Z,12.23
2019-03-19T09:44:27.958Z,12.15
2019-03-19T09:46:58.035Z,11.95
2019-03-19T09:49:27.990Z,12.05
2019-03-19T09:51:57.859Z,11.53
2019-03-19T09:54:27.806Z,11.65
2019-03-19T09:56:57.824Z,11.50
2019-03-19T09:59:27.868Z,10.25
2019-03-19T10:01:57.827Z,10.10
2019-03-19T10:04:27.738Z,8.70
2019-03-19T10:07:05.742Z,8.50
2019-03-19T10:09:29.505Z,7.92
2019-03-19T10:11:59.582Z,8.60
2019-03-19T10:14:29.486Z,8.50
2019-03-19T10:16:59.366Z,8.43
2019-03-19T10:19:29.294Z,7.95
2019-03-19T10:21:59.241Z,7.47
2019-03-19T10:24:29.256Z,7.45
2019-03-19T10:26:59.257Z,6.60
2019-03-19T10:29:37.767Z,7.15
2019-03-19T10:32:00.658Z,6.97
2019-03-19T10:34:30.544Z,7.00
2019-03-19T10:37:00.348Z,7.15
2019-03-19T10:39:30.421Z,6.72
2019-03-19T10:42:00.247Z,6.00
2019-03-19T10:44:30.253Z,5.23
2019-03-19T10:47:00.142Z,4.70
2019-03-19T10:49:30.035Z,4.67
2019-03-19T10:51:59.921Z,4.80
2019-03-19T10:54:29.829Z,5.03
2019-03-19T10:56:59.672Z,4.75
2019-03-19T10:59:29.576Z,4.97
2019-03-19T11:01:59.493Z,5.05
2019-03-19T11:04:29.326Z,5.10
2019-03-19T11:06:59.302Z,4.50
2019-03-19T11:09:29.218Z,4.50
2019-03-19T11:11:59.173Z,4.87
2019-03-19T11:14:29.064Z,4.60
2019-03-19T11:16:58.973Z,4.77
2019-03-19T11:19:28.796Z,4.28
2019-03-19T11:21:58.615Z,4.03
2019-03-19T11:24:28.522Z,3.75
2019-03-19T11:26:58.393Z,3.42
2019-03-19T11:29:28.233Z,3.50
2019-03-19T11:31:58.170Z,3.70
2019-03-19T11:34:29.082Z,3.40
2019-03-19T11:36:58.926Z,3.58
2019-03-19T11:39:28.741Z,3.65
2019-03-19T11:41:58.618Z,3.40
2019-03-19T11:44:28.555Z,3.60
2019-03-19T11:46:58.418Z,3.60
2019-03-19T11:49:28.476Z,3.62
2019-03-19T11:51:58.322Z,3.67
2019-03-19T11:54:28.257Z,3.50
2019-03-19T11:56:58.197Z,3.85
2019-03-19T11:59:28.077Z,3.95
2019-03-19T12:01:57.947Z,3.60
2019-03-19T12:04:27.826Z,3.35
2019-03-19T12:06:57.724Z,3.80
2019-03-19T12:09:27.570Z,3.80
2019-03-19T12:11:57.404Z,4.05
2019-03-19T12:14:27.248Z,4.90
2019-03-19T12:16:57.079Z,3.70
2019-03-19T12:19:27.046Z,3.35
2019-03-19T12:21:56.970Z,3.45
2019-03-19T12:24:26.850Z,4.07
2019-03-19T12:26:56.665Z,3.60
2019-03-19T12:29:26.560Z,3.83
2019-03-19T12:31:56.513Z,3.87
2019-03-19T12:34:26.367Z,3.33
2019-03-19T12:36:56.228Z,4.00
2019-03-19T12:39:26.158Z,3.65
2019-03-19T12:41:58.861Z,3.98
2019-03-19T12:44:28.737Z,3.80
2019-03-19T12:46:58.550Z,4.00
2019-03-19T12:49:28.446Z,4.00
2019-03-19T12:51:58.395Z,3.98
2019-03-19T12:54:28.568Z,3.75
2019-03-19T12:56:58.412Z,3.40
2019-03-19T12:59:28.231Z,3.63
2019-03-19T13:01:58.124Z,3.30
2019-03-19T13:04:28.040Z,3.07
2019-03-19T13:06:57.858Z,3.10
2019-03-19T13:09:27.801Z,3.20
2019-03-19T13:11:57.597Z,3.58
2019-03-19T13:14:27.556Z,3.52
2019-03-19T13:16:57.436Z,2.90
2019-03-19T13:19:27.420Z,3.00
2019-03-19T13:21:57.234Z,3.15
2019-03-19T13:24:27.187Z,2.70
2019-03-19T13:26:57.254Z,3.23
2019-03-19T13:29:27.090Z,3.67
2019-03-19T13:31:56.960Z,2.77
2019-03-19T13:34:26.866Z,2.90
2019-03-19T13:36:58.528Z,2.90
2019-03-19T13:39:28.490Z,2.58
2019-03-19T13:41:58.462Z,2.55
2019-03-19T13:44:28.297Z,2.80
2019-03-19T13:47:00.052Z,2.55
2019-03-19T13:49:29.990Z,3.05
2019-03-19T13:51:59.857Z,3.20
2019-03-19T13:54:29.742Z,2.80
2019-03-19T13:56:59.604Z,2.50
2019-03-19T13:59:29.486Z,2.72
2019-03-19T14:02:00.434Z,2.65
2019-03-19T14:04:31.177Z,2.97
2019-03-19T14:07:01.035Z,2.77
2019-03-19T14:09:30.838Z,2.97
2019-03-19T14:12:00.688Z,2.42
2019-03-19T14:14:32.406Z,2.70
2019-03-19T14:17:02.321Z,2.60
2019-03-19T14:19:32.167Z,2.40
2019-03-19T14:22:01.957Z,2.58
2019-03-19T14:24:31.799Z,2.70
2019-03-19T14:27:01.705Z,2.70
2019-03-19T14:29:31.583Z,2.90
2019-03-19T14:32:03.871Z,2.63
2019-03-19T14:34:32.959Z,2.80
2019-03-19T14:37:02.859Z,2.92
2019-03-19T14:39:32.748Z,2.65
2019-03-19T14:42:02.723Z,2.60
2019-03-19T14:44:32.646Z,3.12
2019-03-19T14:47:02.651Z,3.00
2019-03-19T14:49:32.521Z,2.80
2019-03-19T14:52:02.372Z,3.00
2019-03-19T14:54:32.219Z,3.00
2019-03-19T14:57:02.129Z,3.10
2019-03-19T14:59:32.104Z,2.90
2019-03-19T15:02:02.143Z,2.95
2019-03-19T15:04:31.928Z,2.45
2019-03-19T15:07:01.805Z,2.67
2019-03-19T15:09:31.793Z,2.80
2019-03-19T15:12:01.775Z,2.60
2019-03-19T15:14:31.762Z,2.67
2019-03-19T15:17:05.804Z,2.83
2019-03-19T15:19:35.790Z,3.05
2019-03-19T15:22:05.855Z,2.67
2019-03-19T15:24:35.811Z,2.27
2019-03-19T15:27:07.417Z,2.42
2019-03-19T15:29:37.285Z,2.65
2019-03-19T15:32:07.225Z,2.62
2019-03-19T15:34:37.088Z,2.60
2019-03-19T15:37:06.961Z,2.80
2019-03-19T15:39:36.820Z,2.75
2019-03-19T15:42:06.758Z,2.60
2019-03-19T15:44:36.594Z,2.45
2019-03-19T15:47:06.477Z,2.58
2019-03-19T15:49:38.508Z,2.40
2019-03-19T15:52:07.896Z,2.87
2019-03-19T15:54:37.869Z,2.90
2019-03-19T15:57:07.707Z,2.67
2019-03-19T15:59:37.646Z,2.70
2019-03-19T16:02:07.471Z,2.58
2019-03-19T16:04:37.387Z,3.17
2019-03-19T16:07:07.262Z,2.50
2019-03-19T16:09:37.093Z,2.77
2019-03-19T16:12:06.994Z,3.72
2019-03-19T16:14:36.815Z,3.40
2019-03-19T16:17:06.686Z,2.87
2019-03-19T16:19:36.617Z,3.27
2019-03-19T16:22:06.464Z,2.70
2019-03-19T16:24:36.362Z,2.92
2019-03-19T16:27:06.306Z,2.55
2019-03-19T16:29:36.231Z,2.77
2019-03-19T16:32:06.106Z,3.00
2019-03-19T16:34:35.945Z,2.92
2019-03-19T16:37:05.861Z,2.92
2019-03-19T16:39:35.832Z,2.87
2019-03-19T16:42:05.705Z,2.83
2019-03-19T16:44:35.566Z,2.50
2019-03-19T16:47:05.500Z,3.00
2019-03-19T16:49:35.495Z,2.80
2019-03-19T16:52:05.363Z,2.80
2019-03-19T16:54:35.242Z,3.25
2019-03-19T16:57:05.215Z,2.85
2019-03-19T16:59:35.106Z,2.90
2019-03-19T17:02:05.060Z,3.27
2019-03-19T17:04:34.879Z,3.80
2019-03-19T17:07:04.769Z,3.40
2019-03-19T17:09:34.817Z,3.27
2019-03-19T17:12:04.652Z,3.10
2019-03-19T17:14:34.523Z,2.83
2019-03-19T17:17:04.371Z,2.72
2019-03-19T17:19:34.409Z,2.90
2019-03-19T17:22:04.379Z,2.80
2019-03-19T17:24:34.280Z,2.83
2019-03-19T17:27:04.316Z,2.67
2019-03-19T17:29:34.202Z,3.17
2019-03-19T17:32:12.509Z,3.25
2019-03-19T17:34:35.802Z,3.10
2019-03-19T17:37:05.716Z,2.70
2019-03-19T17:39:35.681Z,2.62
2019-03-19T17:42:05.578Z,3.00
2019-03-19T17:44:35.555Z,3.15
2019-03-19T17:47:06.446Z,3.33
2019-03-19T17:49:36.298Z,2.87
2019-03-19T17:52:06.204Z,2.80
2019-03-19T17:54:36.087Z,3.10
2019-03-19T17:57:06.073Z,2.93
2019-03-19T17:59:35.982Z,2.92
2019-03-19T18:02:05.929Z,3.40
2019-03-19T18:04:35.844Z,3.20
2019-03-19T18:07:05.766Z,3.30
2019-03-19T18:09:35.636Z,3.02
2019-03-19T18:12:05.477Z,2.87
2019-03-19T18:14:35.442Z,3.33
2019-03-19T18:17:05.588Z,3.10
2019-03-19T18:19:35.468Z,3.15
2019-03-19T18:22:05.543Z,3.15
2019-03-19T18:24:35.477Z,3.50
2019-03-19T18:27:05.331Z,3.15
2019-03-19T18:29:35.370Z,3.55
2019-03-19T18:32:06.539Z,3.58
2019-03-19T18:34:36.464Z,3.42
2019-03-19T18:37:06.368Z,3.45
2019-03-19T18:39:36.340Z,4.00
2019-03-19T18:42:08.113Z,3.75
2019-03-19T18:44:38.153Z,4.05
2019-03-19T18:47:08.185Z,3.90
2019-03-19T18:49:38.119Z,4.10
2019-03-19T18:52:08.155Z,4.60
2019-03-19T18:54:40.687Z,4.05
2019-03-19T18:57:13.651Z,4.00
2019-03-19T18:59:43.587Z,4.20
2019-03-19T19:02:13.598Z,4.12
2019-03-19T19:04:43.605Z,3.90
2019-03-19T19:07:13.491Z,3.70
2019-03-19T19:09:45.143Z,4.22
2019-03-19T19:12:15.095Z,4.13
2019-03-19T19:14:45.047Z,4.47
2019-03-19T19:17:15.153Z,4.35
2019-03-19T19:19:45.106Z,4.33
2019-03-19T19:22:15.047Z,4.28
2019-03-19T19:24:44.879Z,4.20
2019-03-19T19:27:14.880Z,4.22
2019-03-19T19:29:44.778Z,3.50
2019-03-19T19:32:14.683Z,4.03
2019-03-19T19:34:44.628Z,5.55
2019-03-19T19:37:14.513Z,6.80
2019-03-19T19:39:44.475Z,6.87
2019-03-19T19:42:14.503Z,5.35
2019-03-19T19:44:44.435Z,5.30
2019-03-19T19:47:15.653Z,5.40
2019-03-19T19:49:45.566Z,5.55
2019-03-19T19:52:15.486Z,5.37
2019-03-19T19:54:45.547Z,5.12
2019-03-19T19:57:15.707Z,5.40
2019-03-19T19:59:45.641Z,5.53
2019-03-19T20:02:20.033Z,5.40
2019-03-19T20:04:50.692Z,4.47
2019-03-19T20:07:20.686Z,4.35
2019-03-19T20:09:50.640Z,3.80
2019-03-19T20:12:20.648Z,4.22
2019-03-19T20:14:50.876Z,4.42
2019-03-19T20:17:20.865Z,4.90
2019-03-19T20:19:51.081Z,5.28
2019-03-19T20:22:21.119Z,5.33
2019-03-19T20:24:51.122Z,5.45
2019-03-19T20:27:21.215Z,5.87
2019-03-19T20:29:51.649Z,5.20
2019-03-19T20:32:23.523Z,4.20
2019-03-19T20:34:53.546Z,4.80
2019-03-19T20:37:26.165Z,4.70
2019-03-19T20:40:00.749Z,5.28
2019-03-19T20:42:30.716Z,5.20
2019-03-19T20:45:00.755Z,5.75
2019-03-19T20:47:30.895Z,5.75
2019-03-19T20:50:00.944Z,5.87
2019-03-19T20:52:30.934Z,5.90
2019-03-19T20:55:04.850Z,5.90
2019-03-19T20:57:35.257Z,6.37
2019-03-19T21:00:06.764Z,5.25
2019-03-19T21:02:37.091Z,5.40
2019-03-19T21:05:09.908Z,5.70
2019-03-19T21:07:40.136Z,5.30
2019-03-19T21:10:13.194Z,5.22
2019-03-19T21:12:43.451Z,5.67
2019-03-19T21:15:18.822Z,6.15
2019-03-19T21:17:51.898Z,7.15
2019-03-19T21:20:22.239Z,6.62
2019-03-19T21:22:52.443Z,6.53
2019-03-19T21:25:22.500Z,6.33
2019-03-19T21:27:53.945Z,6.50
2019-03-19T21:30:24.185Z,6.65
2019-03-19T21:32:54.367Z,6.50
2019-03-19T21:35:24.650Z,6.37
2019-03-19T21:37:54.641Z,6.83
2019-03-19T21:40:24.685Z,7.12
2019-03-19T21:42:54.869Z,7.83
2019-03-19T21:45:24.941Z,7.20
2019-03-19T21:47:54.947Z,5.75
2019-03-19T21:50:24.902Z,5.78
2019-03-19T21:52:54.738Z,6.03
2019-03-19T21:55:24.675Z,6.15
2019-03-19T21:57:57.023Z,6.20
2019-03-19T22:00:27.190Z,6.10
2019-03-19T22:02:58.262Z,6.17
2019-03-19T22:05:28.564Z,6.50
2019-03-19T22:07:58.789Z,5.80
2019-03-19T22:10:29.511Z,6.78
2019-03-19T22:12:59.585Z,6.10
2019-03-19T22:15:30.398Z,6.08
2019-03-19T22:18:00.343Z,6.12
2019-03-19T22:20:32.040Z,6.28
2019-03-19T22:23:02.066Z,5.78
2019-03-19T22:25:31.960Z,5.85
2019-03-19T22:28:02.023Z,5.55
2019-03-19T22:30:32.029Z,5.42
2019-03-19T22:33:01.993Z,5.50
2019-03-19T22:35:32.013Z,5.97
2019-03-19T22:38:03.065Z,6.50
2019-03-19T22:40:32.937Z,5.83
2019-03-19T22:43:02.805Z,6.90
2019-03-19T22:45:32.817Z,5.30
2019-03-19T22:48:02.912Z,5.92
2019-03-19T22:50:32.878Z,6.00
2019-03-19T22:53:02.929Z,5.25
2019-03-19T22:55:33.989Z,5.22
2019-03-19T22:58:03.959Z,5.20
2019-03-19T23:00:45.810Z,5.12
2019-03-19T23:03:17.319Z,5.22
2019-03-19T23:05:47.183Z,5.45
2019-03-19T23:08:17.051Z,5.57
2019-03-19T23:10:47.015Z,5.20
2019-03-19T23:13:17.001Z,5.58
2019-03-19T23:15:47.248Z,5.70
2019-03-19T23:18:17.167Z,5.60
2019-03-19T23:20:50.241Z,5.60
2019-03-19T23:23:20.341Z,5.62
2019-03-19T23:25:50.399Z,5.33
2019-03-19T23:28:20.298Z,5.50
2019-03-19T23:30:50.353Z,5.30
2019-03-19T23:33:20.473Z,5.60
2019-03-19T23:35:50.541Z,5.60
2019-03-19T23:38:20.543Z,5.65
2019-03-19T23:40:50.511Z,6.33
2019-03-19T23:43:20.457Z,5.37
2019-03-19T23:45:50.331Z,6.22
2019-03-19T23:48:20.287Z,6.07
2019-03-19T23:50:50.185Z,6.53
2019-03-19T23:53:20.166Z,6.55
2019-03-19T23:55:50.996Z,6.37
2019-03-19T23:58:20.825Z,5.70
